DXXX/LFW METAR and TAF weather

Enter ICAO airport designator
Station Type Date Time Source
DXXX METAR 2022/06/27 08:00 UTC NOAA

DXXX 270800Z 26005KT 9999 SCT012 26/24 Q1014 NOSIG


Station Type Date Time Source
DXXX Decoded METAR 2022/06/27 08:00 UTC NOAA

Lome, Togo (DXXX) 06-10N 001-15E 25M
Jun 27, 2022 - 04:00 AM EDT / 2022.06.27 0800 UTC
Wind: from the W (260 degrees) at 6 MPH (5 KT):0
Visibility: greater than 7 mile(s):0
Sky conditions: partly cloudy
Temperature: 78 F (26 C)
Dew Point: 75 F (24 C)
Relative Humidity: 88%
Pressure (altimeter): 29.94 in. Hg (1014 hPa)
ob: DXXX 270800Z 26005KT 9999 SCT012 26/24 Q1014 NOSIG
cycle: 8

Station Type Date Time Source
DXXX TAF 2022/06/27 18:39 UTC NOAA

TAF TAF COR DXXX 2618/2724 20010KT 9999 FEW012 PROB30
TEMPO 2618/2624 4000 TSRA BKN010 FEW020CB
BECMG 2700/2702 VRB05KT
BECMG 2709/2711 20010KT

Example: see airport list